sensor_id;sensor_type;location;lat;lon;timestamp;temperature;humidity
44136;DHT22;29798;51.064;13.734;2022-07-23T00:02:08;19.90;99.90
44136;DHT22;29798;51.064;13.734;2022-07-23T00:04:34;19.90;99.90
44136;DHT22;29798;51.064;13.734;2022-07-23T00:06:59;20.90;99.90
44136;DHT22;29798;51.064;13.734;2022-07-23T00:09:25;19.90;99.90
44136;DHT22;29798;51.064;13.734;2022-07-23T00:11:51;19.90;99.90
44136;DHT22;29798;51.064;13.734;2022-07-23T00:14:17;19.90;99.90
44136;DHT22;29798;51.064;13.734;2022-07-23T00:16:43;20.10;99.90
44136;DHT22;29798;51.064;13.734;2022-07-23T00:19:08;20.30;99.90
44136;DHT22;29798;51.064;13.734;2022-07-23T00:21:34;20.40;99.90
44136;DHT22;29798;51.064;13.734;2022-07-23T00:23:59;20.40;99.90
44136;DHT22;29798;51.064;13.734;2022-07-23T00:26:25;20.30;99.90
44136;DHT22;29798;51.064;13.734;2022-07-23T00:28:51;20.30;99.90
44136;DHT22;29798;51.064;13.734;2022-07-23T00:31:16;20.40;99.90
44136;DHT22;29798;51.064;13.734;2022-07-23T00:33:44;20.30;99.90
44136;DHT22;29798;51.064;13.734;2022-07-23T00:36:09;20.30;99.90
44136;DHT22;29798;51.064;13.734;2022-07-23T00:38:35;20.30;99.90
44136;DHT22;29798;51.064;13.734;2022-07-23T00:41:00;20.10;99.90
44136;DHT22;29798;51.064;13.734;2022-07-23T00:43:26;20.20;99.90
44136;DHT22;29798;51.064;13.734;2022-07-23T00:45:52;20.20;99.90
44136;DHT22;29798;51.064;13.734;2022-07-23T00:48:17;20.20;99.90
44136;DHT22;29798;51.064;13.734;2022-07-23T00:50:43;20.20;99.90
44136;DHT22;29798;51.064;13.734;2022-07-23T00:53:09;20.20;99.90
44136;DHT22;29798;51.064;13.734;2022-07-23T00:55:35;20.20;99.90
44136;DHT22;29798;51.064;13.734;2022-07-23T00:58:01;20.20;99.90
44136;DHT22;29798;51.064;13.734;2022-07-23T01:00:27;20.20;99.90
44136;DHT22;29798;51.064;13.734;2022-07-23T01:02:52;20.20;99.90
44136;DHT22;29798;51.064;13.734;2022-07-23T01:05:18;20.20;99.90
44136;DHT22;29798;51.064;13.734;2022-07-23T01:07:48;20.30;99.90
44136;DHT22;29798;51.064;13.734;2022-07-23T01:10:14;20.30;99.90
44136;DHT22;29798;51.064;13.734;2022-07-23T01:13:02;20.30;99.90
44136;DHT22;29798;51.064;13.734;2022-07-23T01:15:29;20.30;99.90
44136;DHT22;29798;51.064;13.734;2022-07-23T01:17:55;20.30;99.90
44136;DHT22;29798;51.064;13.734;2022-07-23T01:20:21;20.30;99.90
44136;DHT22;29798;51.064;13.734;2022-07-23T01:22:46;20.20;99.90
44136;DHT22;29798;51.064;13.734;2022-07-23T01:25:12;20.20;99.90
44136;DHT22;29798;51.064;13.734;2022-07-23T01:27:42;20.20;99.90
44136;DHT22;29798;51.064;13.734;2022-07-23T01:30:08;20.20;99.90
44136;DHT22;29798;51.064;13.734;2022-07-23T01:32:34;20.10;99.90
44136;DHT22;29798;51.064;13.734;2022-07-23T01:34:59;20.00;99.90
44136;DHT22;29798;51.064;13.734;2022-07-23T01:37:25;20.00;99.90
44136;DHT22;29798;51.064;13.734;2022-07-23T01:39:51;19.90;99.90
44136;DHT22;29798;51.064;13.734;2022-07-23T01:42:17;19.90;99.90
44136;DHT22;29798;51.064;13.734;2022-07-23T01:44:43;19.80;99.90
44136;DHT22;29798;51.064;13.734;2022-07-23T01:47:16;19.80;99.90
44136;DHT22;29798;51.064;13.734;2022-07-23T01:49:42;19.80;99.90
44136;DHT22;29798;51.064;13.734;2022-07-23T01:52:28;19.70;99.90
44136;DHT22;29798;51.064;13.734;2022-07-23T01:54:53;19.70;99.90
44136;DHT22;29798;51.064;13.734;2022-07-23T01:57:20;19.70;99.90
44136;DHT22;29798;51.064;13.734;2022-07-23T01:59:45;19.60;99.90
44136;DHT22;29798;51.064;13.734;2022-07-23T02:02:11;19.60;99.90
44136;DHT22;29798;51.064;13.734;2022-07-23T02:04:37;19.60;99.90
44136;DHT22;29798;51.064;13.734;2022-07-23T02:07:03;19.60;99.90
44136;DHT22;29798;51.064;13.734;2022-07-23T02:09:29;19.60;99.90
44136;DHT22;29798;51.064;13.734;2022-07-23T02:11:55;19.50;99.90
44136;DHT22;29798;51.064;13.734;2022-07-23T02:14:21;19.50;99.90
44136;DHT22;29798;51.064;13.734;2022-07-23T02:16:46;19.50;99.90
44136;DHT22;29798;51.064;13.734;2022-07-23T02:19:14;19.50;99.90
44136;DHT22;29798;51.064;13.734;2022-07-23T02:21:39;19.40;99.90
44136;DHT22;29798;51.064;13.734;2022-07-23T02:24:05;19.40;99.90
44136;DHT22;29798;51.064;13.734;2022-07-23T02:26:31;19.30;99.90
44136;DHT22;29798;51.064;13.734;2022-07-23T02:29:03;19.30;99.90
44136;DHT22;29798;51.064;13.734;2022-07-23T02:31:29;19.30;99.90
44136;DHT22;29798;51.064;13.734;2022-07-23T02:33:56;19.30;99.90
44136;DHT22;29798;51.064;13.734;2022-07-23T02:36:22;19.40;99.90
44136;DHT22;29798;51.064;13.734;2022-07-23T02:38:49;19.40;99.90
44136;DHT22;29798;51.064;13.734;2022-07-23T02:41:15;19.40;99.90
44136;DHT22;29798;51.064;13.734;2022-07-23T02:43:41;19.50;99.90
44136;DHT22;29798;51.064;13.734;2022-07-23T02:46:07;19.50;99.90
44136;DHT22;29798;51.064;13.734;2022-07-23T02:48:34;19.40;99.90
44136;DHT22;29798;51.064;13.734;2022-07-23T02:50:59;19.40;99.90
44136;DHT22;29798;51.064;13.734;2022-07-23T02:53:31;19.40;99.90
44136;DHT22;29798;51.064;13.734;2022-07-23T02:55:57;19.40;99.90
44136;DHT22;29798;51.064;13.734;2022-07-23T02:58:23;19.40;99.90
44136;DHT22;29798;51.064;13.734;2022-07-23T03:00:50;19.30;99.90
44136;DHT22;29798;51.064;13.734;2022-07-23T03:03:16;19.30;99.90
44136;DHT22;29798;51.064;13.734;2022-07-23T03:05:42;19.20;99.90
44136;DHT22;29798;51.064;13.734;2022-07-23T03:08:07;19.20;99.90
44136;DHT22;29798;51.064;13.734;2022-07-23T03:10:36;19.20;99.90
44136;DHT22;29798;51.064;13.734;2022-07-23T03:13:02;19.20;99.90
44136;DHT22;29798;51.064;13.734;2022-07-23T03:15:28;19.30;99.90
44136;DHT22;29798;51.064;13.734;2022-07-23T03:17:54;19.40;99.90
44136;DHT22;29798;51.064;13.734;2022-07-23T03:20:19;19.50;99.90
44136;DHT22;29798;51.064;13.734;2022-07-23T03:22:45;19.50;99.90
44136;DHT22;29798;51.064;13.734;2022-07-23T03:25:10;19.50;99.90
44136;DHT22;29798;51.064;13.734;2022-07-23T03:27:36;19.50;99.90
44136;DHT22;29798;51.064;13.734;2022-07-23T03:30:02;19.50;99.90
44136;DHT22;29798;51.064;13.734;2022-07-23T03:32:28;19.50;99.90
44136;DHT22;29798;51.064;13.734;2022-07-23T03:34:55;19.10;99.90
44136;DHT22;29798;51.064;13.734;2022-07-23T03:37:21;19.50;99.90
44136;DHT22;29798;51.064;13.734;2022-07-23T03:39:47;19.40;99.90
44136;DHT22;29798;51.064;13.734;2022-07-23T03:42:13;19.50;99.90
44136;DHT22;29798;51.064;13.734;2022-07-23T03:44:38;19.60;99.90
44136;DHT22;29798;51.064;13.734;2022-07-23T03:47:05;19.60;99.90
44136;DHT22;29798;51.064;13.734;2022-07-23T03:49:30;19.60;99.90
44136;DHT22;29798;51.064;13.734;2022-07-23T03:51:56;19.60;99.90
44136;DHT22;29798;51.064;13.734;2022-07-23T03:54:22;19.50;99.90
44136;DHT22;29798;51.064;13.734;2022-07-23T03:56:47;19.50;99.90
44136;DHT22;29798;51.064;13.734;2022-07-23T03:59:13;19.60;99.90
44136;DHT22;29798;51.064;13.734;2022-07-23T04:01:39;19.60;99.90
44136;DHT22;29798;51.064;13.734;2022-07-23T04:04:05;20.10;99.90
44136;DHT22;29798;51.064;13.734;2022-07-23T04:06:31;19.70;99.90
44136;DHT22;29798;51.064;13.734;2022-07-23T04:08:58;19.70;99.90
44136;DHT22;29798;51.064;13.734;2022-07-23T04:11:24;19.70;99.90
44136;DHT22;29798;51.064;13.734;2022-07-23T04:13:50;19.70;99.90
44136;DHT22;29798;51.064;13.734;2022-07-23T04:16:20;19.80;99.90
44136;DHT22;29798;51.064;13.734;2022-07-23T04:18:45;19.80;99.90
44136;DHT22;29798;51.064;13.734;2022-07-23T04:21:15;19.90;99.90
44136;DHT22;29798;51.064;13.734;2022-07-23T04:23:41;20.00;99.90
44136;DHT22;29798;51.064;13.734;2022-07-23T04:26:06;20.00;99.90
44136;DHT22;29798;51.064;13.734;2022-07-23T04:28:33;20.10;99.90
44136;DHT22;29798;51.064;13.734;2022-07-23T04:31:00;20.10;99.90
44136;DHT22;29798;51.064;13.734;2022-07-23T04:33:26;20.20;99.90
44136;DHT22;29798;51.064;13.734;2022-07-23T04:35:54;20.20;99.90
44136;DHT22;29798;51.064;13.734;2022-07-23T04:38:20;20.30;99.90
44136;DHT22;29798;51.064;13.734;2022-07-23T04:40:48;20.30;99.90
44136;DHT22;29798;51.064;13.734;2022-07-23T04:43:14;20.30;99.90
44136;DHT22;29798;51.064;13.734;2022-07-23T04:45:45;20.30;99.90
44136;DHT22;29798;51.064;13.734;2022-07-23T04:48:11;20.30;99.90
44136;DHT22;29798;51.064;13.734;2022-07-23T04:50:37;20.20;99.90
44136;DHT22;29798;51.064;13.734;2022-07-23T04:53:04;20.20;99.90
44136;DHT22;29798;51.064;13.734;2022-07-23T04:55:30;20.30;99.90
44136;DHT22;29798;51.064;13.734;2022-07-23T04:57:56;20.30;99.90
44136;DHT22;29798;51.064;13.734;2022-07-23T05:00:21;20.20;99.90
44136;DHT22;29798;51.064;13.734;2022-07-23T05:02:48;20.20;99.90
44136;DHT22;29798;51.064;13.734;2022-07-23T05:05:14;20.30;99.90
44136;DHT22;29798;51.064;13.734;2022-07-23T05:07:41;20.30;99.90
44136;DHT22;29798;51.064;13.734;2022-07-23T05:10:07;20.40;99.90
44136;DHT22;29798;51.064;13.734;2022-07-23T05:12:32;20.40;99.90
44136;DHT22;29798;51.064;13.734;2022-07-23T05:14:58;20.40;99.90
44136;DHT22;29798;51.064;13.734;2022-07-23T05:17:24;20.50;99.90
44136;DHT22;29798;51.064;13.734;2022-07-23T05:19:52;20.50;99.90
44136;DHT22;29798;51.064;13.734;2022-07-23T05:22:17;20.60;99.90
44136;DHT22;29798;51.064;13.734;2022-07-23T05:24:43;20.60;99.90
44136;DHT22;29798;51.064;13.734;2022-07-23T05:27:09;20.70;99.90
44136;DHT22;29798;51.064;13.734;2022-07-23T05:29:35;20.80;99.90
44136;DHT22;29798;51.064;13.734;2022-07-23T05:32:00;20.90;99.90
44136;DHT22;29798;51.064;13.734;2022-07-23T05:34:29;20.90;99.90
44136;DHT22;29798;51.064;13.734;2022-07-23T05:36:55;20.90;99.90
44136;DHT22;29798;51.064;13.734;2022-07-23T05:39:21;20.90;99.90
44136;DHT22;29798;51.064;13.734;2022-07-23T05:41:47;20.90;99.90
44136;DHT22;29798;51.064;13.734;2022-07-23T05:44:13;20.90;99.90
44136;DHT22;29798;51.064;13.734;2022-07-23T05:46:41;20.90;99.90
44136;DHT22;29798;51.064;13.734;2022-07-23T05:49:09;20.90;99.90
44136;DHT22;29798;51.064;13.734;2022-07-23T05:51:56;20.80;99.90
44136;DHT22;29798;51.064;13.734;2022-07-23T05:54:35;20.50;99.90
44136;DHT22;29798;51.064;13.734;2022-07-23T05:57:01;20.50;99.90
44136;DHT22;29798;51.064;13.734;2022-07-23T05:59:27;20.40;99.90
44136;DHT22;29798;51.064;13.734;2022-07-23T06:01:52;20.40;99.90
44136;DHT22;29798;51.064;13.734;2022-07-23T06:04:18;20.20;99.90
44136;DHT22;29798;51.064;13.734;2022-07-23T06:06:55;20.20;99.90
44136;DHT22;29798;51.064;13.734;2022-07-23T06:09:21;20.00;99.90
44136;DHT22;29798;51.064;13.734;2022-07-23T06:11:46;19.80;99.90
44136;DHT22;29798;51.064;13.734;2022-07-23T06:14:12;19.70;99.90
44136;DHT22;29798;51.064;13.734;2022-07-23T06:16:46;19.70;99.90
44136;DHT22;29798;51.064;13.734;2022-07-23T06:19:12;19.60;99.90
44136;DHT22;29798;51.064;13.734;2022-07-23T06:21:38;19.50;99.90
44136;DHT22;29798;51.064;13.734;2022-07-23T06:24:04;19.50;99.90
44136;DHT22;29798;51.064;13.734;2022-07-23T06:26:29;19.50;99.90
44136;DHT22;29798;51.064;13.734;2022-07-23T06:28:55;19.60;99.90
44136;DHT22;29798;51.064;13.734;2022-07-23T06:31:20;19.60;99.90
44136;DHT22;29798;51.064;13.734;2022-07-23T06:33:46;19.60;99.90
44136;DHT22;29798;51.064;13.734;2022-07-23T06:36:13;19.80;99.90
44136;DHT22;29798;51.064;13.734;2022-07-23T06:38:39;19.80;99.90
44136;DHT22;29798;51.064;13.734;2022-07-23T06:41:05;19.90;99.90
44136;DHT22;29798;51.064;13.734;2022-07-23T06:43:31;19.90;99.90
44136;DHT22;29798;51.064;13.734;2022-07-23T06:45:57;20.00;99.90
44136;DHT22;29798;51.064;13.734;2022-07-23T06:48:24;20.00;99.90
44136;DHT22;29798;51.064;13.734;2022-07-23T06:50:49;20.00;99.90
44136;DHT22;29798;51.064;13.734;2022-07-23T06:53:15;20.10;99.90
44136;DHT22;29798;51.064;13.734;2022-07-23T06:55:41;20.30;99.90
44136;DHT22;29798;51.064;13.734;2022-07-23T06:58:06;20.50;99.90
44136;DHT22;29798;51.064;13.734;2022-07-23T07:00:34;20.60;99.90
44136;DHT22;29798;51.064;13.734;2022-07-23T07:03:00;20.50;99.90
44136;DHT22;29798;51.064;13.734;2022-07-23T07:05:25;20.50;99.90
44136;DHT22;29798;51.064;13.734;2022-07-23T07:07:55;20.60;99.90
44136;DHT22;29798;51.064;13.734;2022-07-23T07:10:21;20.60;99.90
44136;DHT22;29798;51.064;13.734;2022-07-23T07:12:46;20.70;99.90
44136;DHT22;29798;51.064;13.734;2022-07-23T07:15:12;20.70;99.90
44136;DHT22;29798;51.064;13.734;2022-07-23T07:17:38;20.90;99.90
44136;DHT22;29798;51.064;13.734;2022-07-23T07:20:04;21.20;99.90
44136;DHT22;29798;51.064;13.734;2022-07-23T07:22:30;21.40;99.90
44136;DHT22;29798;51.064;13.734;2022-07-23T07:24:56;21.50;99.90
44136;DHT22;29798;51.064;13.734;2022-07-23T07:27:22;21.70;99.90
44136;DHT22;29798;51.064;13.734;2022-07-23T07:29:47;21.80;99.90
44136;DHT22;29798;51.064;13.734;2022-07-23T07:32:13;21.70;99.90
44136;DHT22;29798;51.064;13.734;2022-07-23T07:34:38;21.70;99.90
44136;DHT22;29798;51.064;13.734;2022-07-23T07:37:04;21.70;99.90
44136;DHT22;29798;51.064;13.734;2022-07-23T07:39:30;21.70;99.90
44136;DHT22;29798;51.064;13.734;2022-07-23T07:41:55;21.70;99.90
44136;DHT22;29798;51.064;13.734;2022-07-23T07:44:21;21.90;99.90
44136;DHT22;29798;51.064;13.734;2022-07-23T07:46:47;22.10;99.90
44136;DHT22;29798;51.064;13.734;2022-07-23T07:49:12;22.20;99.90
44136;DHT22;29798;51.064;13.734;2022-07-23T07:51:38;22.40;99.90
44136;DHT22;29798;51.064;13.734;2022-07-23T07:54:04;22.90;99.90
44136;DHT22;29798;51.064;13.734;2022-07-23T07:56:29;23.40;99.90
44136;DHT22;29798;51.064;13.734;2022-07-23T07:58:55;23.60;99.90
44136;DHT22;29798;51.064;13.734;2022-07-23T08:01:21;24.10;99.90
44136;DHT22;29798;51.064;13.734;2022-07-23T08:03:46;24.60;99.90
44136;DHT22;29798;51.064;13.734;2022-07-23T08:06:12;25.00;99.90
44136;DHT22;29798;51.064;13.734;2022-07-23T08:08:38;25.30;99.90
44136;DHT22;29798;51.064;13.734;2022-07-23T08:11:03;25.40;99.90
44136;DHT22;29798;51.064;13.734;2022-07-23T08:13:29;25.30;99.90
44136;DHT22;29798;51.064;13.734;2022-07-23T08:15:55;24.90;99.90
44136;DHT22;29798;51.064;13.734;2022-07-23T08:18:22;24.10;99.90
44136;DHT22;29798;51.064;13.734;2022-07-23T08:20:48;25.20;99.90
44136;DHT22;29798;51.064;13.734;2022-07-23T08:23:13;25.50;99.90
44136;DHT22;29798;51.064;13.734;2022-07-23T08:25:42;25.80;99.90
44136;DHT22;29798;51.064;13.734;2022-07-23T08:28:08;26.00;99.90
44136;DHT22;29798;51.064;13.734;2022-07-23T08:30:35;25.90;99.90
44136;DHT22;29798;51.064;13.734;2022-07-23T08:33:04;25.70;99.90
44136;DHT22;29798;51.064;13.734;2022-07-23T08:35:32;25.50;99.90
44136;DHT22;29798;51.064;13.734;2022-07-23T08:37:59;25.30;99.90
44136;DHT22;29798;51.064;13.734;2022-07-23T08:40:25;25.40;99.90
44136;DHT22;29798;51.064;13.734;2022-07-23T08:42:51;25.40;99.90
44136;DHT22;29798;51.064;13.734;2022-07-23T08:45:18;25.60;99.90
44136;DHT22;29798;51.064;13.734;2022-07-23T08:47:55;25.90;99.90
44136;DHT22;29798;51.064;13.734;2022-07-23T08:50:22;26.00;99.90
44136;DHT22;29798;51.064;13.734;2022-07-23T08:52:49;25.80;99.90
44136;DHT22;29798;51.064;13.734;2022-07-23T08:55:19;26.00;99.90
44136;DHT22;29798;51.064;13.734;2022-07-23T08:57:49;26.40;99.90
44136;DHT22;29798;51.064;13.734;2022-07-23T09:00:15;26.90;99.90
44136;DHT22;29798;51.064;13.734;2022-07-23T09:02:41;27.10;99.90
44136;DHT22;29798;51.064;13.734;2022-07-23T09:05:08;27.10;99.90
44136;DHT22;29798;51.064;13.734;2022-07-23T09:07:34;27.20;99.90
44136;DHT22;29798;51.064;13.734;2022-07-23T09:10:09;27.60;99.90
44136;DHT22;29798;51.064;13.734;2022-07-23T09:12:35;27.80;99.90
44136;DHT22;29798;51.064;13.734;2022-07-23T09:15:05;27.60;99.90
44136;DHT22;29798;51.064;13.734;2022-07-23T09:17:36;27.30;99.90
44136;DHT22;29798;51.064;13.734;2022-07-23T09:20:12;27.10;99.90
44136;DHT22;29798;51.064;13.734;2022-07-23T09:22:38;26.70;99.90
44136;DHT22;29798;51.064;13.734;2022-07-23T09:25:09;26.50;99.90
44136;DHT22;29798;51.064;13.734;2022-07-23T09:30:13;26.70;99.90
44136;DHT22;29798;51.064;13.734;2022-07-23T09:32:39;27.30;99.90
44136;DHT22;29798;51.064;13.734;2022-07-23T09:35:05;27.60;99.90
44136;DHT22;29798;51.064;13.734;2022-07-23T09:37:30;27.70;99.90
44136;DHT22;29798;51.064;13.734;2022-07-23T09:40:03;28.00;99.90
44136;DHT22;29798;51.064;13.734;2022-07-23T09:42:29;28.30;99.90
44136;DHT22;29798;51.064;13.734;2022-07-23T09:44:56;28.10;99.90
44136;DHT22;29798;51.064;13.734;2022-07-23T09:47:23;28.00;99.90
44136;DHT22;29798;51.064;13.734;2022-07-23T09:52:28;27.80;99.90
44136;DHT22;29798;51.064;13.734;2022-07-23T09:54:58;28.40;99.90
44136;DHT22;29798;51.064;13.734;2022-07-23T09:57:25;28.30;99.90
44136;DHT22;29798;51.064;13.734;2022-07-23T09:59:51;28.50;99.90
44136;DHT22;29798;51.064;13.734;2022-07-23T10:02:16;28.70;99.90
44136;DHT22;29798;51.064;13.734;2022-07-23T10:05:05;28.90;99.90
44136;DHT22;29798;51.064;13.734;2022-07-23T10:07:51;29.10;99.90
44136;DHT22;29798;51.064;13.734;2022-07-23T10:10:36;28.90;99.90
44136;DHT22;29798;51.064;13.734;2022-07-23T10:13:37;28.80;99.90
44136;DHT22;29798;51.064;13.734;2022-07-23T10:16:27;28.80;99.90
44136;DHT22;29798;51.064;13.734;2022-07-23T10:18:54;28.60;99.90
44136;DHT22;29798;51.064;13.734;2022-07-23T10:21:25;28.50;99.90
44136;DHT22;29798;51.064;13.734;2022-07-23T10:23:58;28.50;99.90
44136;DHT22;29798;51.064;13.734;2022-07-23T10:26:33;28.40;99.90
44136;DHT22;29798;51.064;13.734;2022-07-23T10:41:43;27.80;99.90
44136;DHT22;29798;51.064;13.734;2022-07-23T10:46:34;28.90;99.90
44136;DHT22;29798;51.064;13.734;2022-07-23T10:49:20;29.30;99.90
44136;DHT22;29798;51.064;13.734;2022-07-23T10:54:30;29.50;99.90
44136;DHT22;29798;51.064;13.734;2022-07-23T10:59:22;29.30;99.90
44136;DHT22;29798;51.064;13.734;2022-07-23T11:01:47;29.30;99.90
44136;DHT22;29798;51.064;13.734;2022-07-23T11:04:13;29.60;99.90
44136;DHT22;29798;51.064;13.734;2022-07-23T11:11:48;30.70;99.90
44136;DHT22;29798;51.064;13.734;2022-07-23T11:14:14;30.70;99.90
44136;DHT22;29798;51.064;13.734;2022-07-23T11:16:46;30.40;99.90
44136;DHT22;29798;51.064;13.734;2022-07-23T11:19:11;30.20;99.90
44136;DHT22;29798;51.064;13.734;2022-07-23T11:24:04;30.10;99.90
44136;DHT22;29798;51.064;13.734;2022-07-23T11:37:02;28.30;99.90
44136;DHT22;29798;51.064;13.734;2022-07-23T11:39:28;28.00;99.90
44136;DHT22;29798;51.064;13.734;2022-07-23T11:41:55;27.30;99.90
44136;DHT22;29798;51.064;13.734;2022-07-23T11:44:27;27.00;99.90
44136;DHT22;29798;51.064;13.734;2022-07-23T11:46:59;26.90;99.90
44136;DHT22;29798;51.064;13.734;2022-07-23T11:49:25;26.70;99.90
44136;DHT22;29798;51.064;13.734;2022-07-23T11:54:30;26.60;99.90
44136;DHT22;29798;51.064;13.734;2022-07-23T11:56:59;26.60;99.90
44136;DHT22;29798;51.064;13.734;2022-07-23T11:59:32;26.60;99.90
44136;DHT22;29798;51.064;13.734;2022-07-23T12:02:02;26.60;99.90
44136;DHT22;29798;51.064;13.734;2022-07-23T12:04:44;26.50;99.90
44136;DHT22;29798;51.064;13.734;2022-07-23T12:09:48;26.20;99.90
44136;DHT22;29798;51.064;13.734;2022-07-23T12:12:13;25.90;99.90
44136;DHT22;29798;51.064;13.734;2022-07-23T12:14:49;25.40;99.90
44136;DHT22;29798;51.064;13.734;2022-07-23T12:17:15;25.40;99.90
44136;DHT22;29798;51.064;13.734;2022-07-23T12:19:40;25.20;99.90
44136;DHT22;29798;51.064;13.734;2022-07-23T12:22:07;25.10;99.90
44136;DHT22;29798;51.064;13.734;2022-07-23T12:24:51;25.20;99.90
44136;DHT22;29798;51.064;13.734;2022-07-23T12:27:19;25.30;99.90
44136;DHT22;29798;51.064;13.734;2022-07-23T12:29:45;25.40;99.90
44136;DHT22;29798;51.064;13.734;2022-07-23T12:32:27;25.40;99.90
44136;DHT22;29798;51.064;13.734;2022-07-23T12:35:08;25.60;99.90
44136;DHT22;29798;51.064;13.734;2022-07-23T12:37:37;25.90;99.90
44136;DHT22;29798;51.064;13.734;2022-07-23T12:42:48;27.20;99.90
44136;DHT22;29798;51.064;13.734;2022-07-23T12:45:14;28.70;99.90
44136;DHT22;29798;51.064;13.734;2022-07-23T12:55:30;29.70;99.90
44136;DHT22;29798;51.064;13.734;2022-07-23T12:58:06;31.20;99.90
44136;DHT22;29798;51.064;13.734;2022-07-23T13:00:33;31.70;99.90
44136;DHT22;29798;51.064;13.734;2022-07-23T13:03:54;31.20;99.90
44136;DHT22;29798;51.064;13.734;2022-07-23T13:06:07;31.10;99.90
44136;DHT22;29798;51.064;13.734;2022-07-23T13:08:33;31.70;99.90
44136;DHT22;29798;51.064;13.734;2022-07-23T13:10:59;31.80;99.90
44136;DHT22;29798;51.064;13.734;2022-07-23T13:13:26;31.90;99.90
44136;DHT22;29798;51.064;13.734;2022-07-23T13:15:52;31.90;99.90
44136;DHT22;29798;51.064;13.734;2022-07-23T13:18:18;32.50;99.70
44136;DHT22;29798;51.064;13.734;2022-07-23T13:20:45;32.70;99.30
44136;DHT22;29798;51.064;13.734;2022-07-23T13:23:10;33.00;98.20
44136;DHT22;29798;51.064;13.734;2022-07-23T13:25:36;33.10;97.90
44136;DHT22;29798;51.064;13.734;2022-07-23T13:28:02;33.40;97.40
44136;DHT22;29798;51.064;13.734;2022-07-23T13:30:27;32.80;97.30
44136;DHT22;29798;51.064;13.734;2022-07-23T13:32:53;31.70;98.60
44136;DHT22;29798;51.064;13.734;2022-07-23T13:35:19;31.10;99.70
44136;DHT22;29798;51.064;13.734;2022-07-23T13:37:44;30.80;99.90
44136;DHT22;29798;51.064;13.734;2022-07-23T13:40:10;30.40;99.90
44136;DHT22;29798;51.064;13.734;2022-07-23T13:42:36;30.10;99.90
44136;DHT22;29798;51.064;13.734;2022-07-23T13:45:02;30.40;99.90
44136;DHT22;29798;51.064;13.734;2022-07-23T13:47:28;31.50;99.90
44136;DHT22;29798;51.064;13.734;2022-07-23T13:49:53;31.10;99.90
44136;DHT22;29798;51.064;13.734;2022-07-23T13:52:19;30.50;99.90
44136;DHT22;29798;51.064;13.734;2022-07-23T13:54:45;30.00;99.90
44136;DHT22;29798;51.064;13.734;2022-07-23T13:57:10;29.50;99.90
44136;DHT22;29798;51.064;13.734;2022-07-23T13:59:36;29.10;99.90
44136;DHT22;29798;51.064;13.734;2022-07-23T14:02:02;29.20;99.90
44136;DHT22;29798;51.064;13.734;2022-07-23T14:04:28;29.50;99.90
44136;DHT22;29798;51.064;13.734;2022-07-23T14:06:53;29.40;99.90
44136;DHT22;29798;51.064;13.734;2022-07-23T14:09:19;29.00;99.90
44136;DHT22;29798;51.064;13.734;2022-07-23T14:11:45;28.50;99.90
44136;DHT22;29798;51.064;13.734;2022-07-23T14:14:10;28.30;99.90
44136;DHT22;29798;51.064;13.734;2022-07-23T14:16:36;28.30;99.90
44136;DHT22;29798;51.064;13.734;2022-07-23T14:19:01;28.50;99.90
44136;DHT22;29798;51.064;13.734;2022-07-23T14:21:27;28.70;99.90
44136;DHT22;29798;51.064;13.734;2022-07-23T14:23:53;28.50;99.90
44136;DHT22;29798;51.064;13.734;2022-07-23T14:26:19;28.30;99.90
44136;DHT22;29798;51.064;13.734;2022-07-23T14:28:45;28.30;99.90
44136;DHT22;29798;51.064;13.734;2022-07-23T14:31:10;28.30;99.90
44136;DHT22;29798;51.064;13.734;2022-07-23T14:33:36;28.40;99.90
44136;DHT22;29798;51.064;13.734;2022-07-23T14:36:02;28.60;99.90
44136;DHT22;29798;51.064;13.734;2022-07-23T14:38:27;29.10;99.90
44136;DHT22;29798;51.064;13.734;2022-07-23T14:40:56;30.30;99.90
44136;DHT22;29798;51.064;13.734;2022-07-23T14:43:21;32.20;99.60
44136;DHT22;29798;51.064;13.734;2022-07-23T14:45:47;33.50;96.60
44136;DHT22;29798;51.064;13.734;2022-07-23T14:48:12;34.70;94.90
44136;DHT22;29798;51.064;13.734;2022-07-23T14:50:38;35.70;92.90
44136;DHT22;29798;51.064;13.734;2022-07-23T14:53:04;36.80;91.50
44136;DHT22;29798;51.064;13.734;2022-07-23T14:55:32;36.50;90.40
44136;DHT22;29798;51.064;13.734;2022-07-23T14:57:58;36.20;90.30
44136;DHT22;29798;51.064;13.734;2022-07-23T15:00:24;36.00;90.50
44136;DHT22;29798;51.064;13.734;2022-07-23T15:02:50;34.60;91.30
44136;DHT22;29798;51.064;13.734;2022-07-23T15:05:15;33.00;92.80
44136;DHT22;29798;51.064;13.734;2022-07-23T15:07:41;32.40;93.60
44136;DHT22;29798;51.064;13.734;2022-07-23T15:10:07;31.60;94.40
44136;DHT22;29798;51.064;13.734;2022-07-23T15:12:33;30.70;95.50
44136;DHT22;29798;51.064;13.734;2022-07-23T15:14:59;30.10;96.40
44136;DHT22;29798;51.064;13.734;2022-07-23T15:17:24;29.80;96.80
44136;DHT22;29798;51.064;13.734;2022-07-23T15:19:50;29.60;97.60
44136;DHT22;29798;51.064;13.734;2022-07-23T15:22:16;29.50;97.60
44136;DHT22;29798;51.064;13.734;2022-07-23T15:24:42;29.40;97.80
44136;DHT22;29798;51.064;13.734;2022-07-23T15:27:08;29.30;98.10
44136;DHT22;29798;51.064;13.734;2022-07-23T15:29:33;29.00;98.30
44136;DHT22;29798;51.064;13.734;2022-07-23T15:31:59;28.90;99.00
44136;DHT22;29798;51.064;13.734;2022-07-23T15:34:27;28.80;98.70
44136;DHT22;29798;51.064;13.734;2022-07-23T15:36:53;28.50;99.30
44136;DHT22;29798;51.064;13.734;2022-07-23T15:39:19;28.20;99.80
44136;DHT22;29798;51.064;13.734;2022-07-23T15:41:44;28.10;99.90
44136;DHT22;29798;51.064;13.734;2022-07-23T15:44:10;28.10;99.90
44136;DHT22;29798;51.064;13.734;2022-07-23T15:46:35;28.20;99.90
44136;DHT22;29798;51.064;13.734;2022-07-23T15:49:01;28.20;99.90
44136;DHT22;29798;51.064;13.734;2022-07-23T15:51:27;28.00;99.90
44136;DHT22;29798;51.064;13.734;2022-07-23T15:53:54;28.10;99.90
44136;DHT22;29798;51.064;13.734;2022-07-23T15:56:19;29.50;99.60
44136;DHT22;29798;51.064;13.734;2022-07-23T15:58:45;31.00;97.20
44136;DHT22;29798;51.064;13.734;2022-07-23T16:01:11;32.00;96.20
44136;DHT22;29798;51.064;13.734;2022-07-23T16:03:37;32.60;94.60
44136;DHT22;29798;51.064;13.734;2022-07-23T16:06:03;32.30;94.70
44136;DHT22;29798;51.064;13.734;2022-07-23T16:08:29;31.80;95.00
44136;DHT22;29798;51.064;13.734;2022-07-23T16:10:55;31.30;96.00
44136;DHT22;29798;51.064;13.734;2022-07-23T16:13:24;31.90;95.50
44136;DHT22;29798;51.064;13.734;2022-07-23T16:15:50;32.50;94.40